Time;durP1;ratioP1;P1;durP2;ratioP2;P2;SDS_P1;SDS_P2;PMS_P1;PMS_P2;Temp;Humidity;BMP_temperature;BMP_pressure;BME280_temperature;BME280_humidity;BME280_pressure;Samples;Min_cycle;Max_cycle;Signal;HPM_P1;HPM_P2
2021/01/03 00:01:54;;;;;;;10.85;7.18;;;9.00;81.50;;;;;;5093225;28;20032;-49
2021/01/03 00:04:19;;;;;;;10.88;6.82;;;8.90;81.20;;;;;;5093295;28;20024;-48
2021/01/03 00:06:49;;;;;;;9.73;6.88;;;8.80;81.50;;;;;;5093294;28;20028;-49
2021/01/03 00:09:16;;;;;;;9.48;5.57;;;8.90;81.40;;;;;;5093216;28;20032;-48
2021/01/03 00:11:42;;;;;;;10.95;7.63;;;8.70;82.30;;;;;;5094261;28;20081;-48
2021/01/03 00:14:08;;;;;;;11.75;6.97;;;8.80;82.50;;;;;;5097041;28;20028;-49
2021/01/03 00:16:34;;;;;;;11.93;7.63;;;8.80;82.20;;;;;;5078411;28;20106;-47
2021/01/03 00:19:00;;;;;;;11.43;6.38;;;8.70;82.60;;;;;;5097183;28;20133;-48
2021/01/03 00:21:26;;;;;;;9.27;5.43;;;8.70;82.50;;;;;;5096993;28;20048;-48
2021/01/03 00:23:52;;;;;;;11.75;7.50;;;8.70;82.80;;;;;;5096965;28;20028;-47
2021/01/03 00:26:17;;;;;;;11.90;7.40;;;8.70;83.20;;;;;;5096998;28;20107;-49
2021/01/03 00:28:43;;;;;;;12.30;6.88;;;8.70;82.70;;;;;;5096819;28;20016;-49
2021/01/03 00:31:10;;;;;;;11.32;6.93;;;8.80;82.80;;;;;;5096787;28;20042;-48
2021/01/03 00:33:36;;;;;;;11.05;6.18;;;8.80;82.50;;;;;;5096133;28;20439;-47
2021/01/03 00:36:03;;;;;;;12.30;6.97;;;8.70;82.80;;;;;;5097003;28;20028;-49
2021/01/03 00:38:29;;;;;;;12.63;6.32;;;8.80;82.60;;;;;;5096557;28;20032;-47
2021/01/03 00:40:54;;;;;;;9.02;5.40;;;8.70;83.10;;;;;;5096649;28;20077;-48
2021/01/03 00:43:20;;;;;;;6.63;4.10;;;8.70;83.20;;;;;;5096739;28;20016;-47
2021/01/03 00:45:46;;;;;;;10.40;5.45;;;8.60;83.70;;;;;;5096744;28;20106;-48
2021/01/03 00:48:13;;;;;;;6.75;3.92;;;8.60;84.20;;;;;;5096587;28;20016;-48
2021/01/03 00:50:38;;;;;;;7.80;5.20;;;8.50;84.30;;;;;;5096648;28;20472;-47
2021/01/03 00:53:05;;;;;;;9.63;5.80;;;8.50;84.20;;;;;;5096633;28;20035;-48
2021/01/03 00:55:30;;;;;;;10.10;4.47;;;8.60;84.20;;;;;;5096491;28;20073;-47
2021/01/03 00:57:56;;;;;;;8.07;3.80;;;8.60;83.90;;;;;;5096273;28;20043;-47
2021/01/03 01:00:26;;;;;;;8.75;5.90;;;8.60;83.50;;;;;;5096575;28;20051;-48
2021/01/03 01:02:51;;;;;;;7.28;3.95;;;8.70;83.70;;;;;;5096207;28;20024;-48
2021/01/03 01:05:18;;;;;;;6.00;3.65;;;8.70;83.10;;;;;;5096427;28;20061;-48
2021/01/03 01:07:44;;;;;;;8.30;5.15;;;8.70;82.80;;;;;;5077931;28;20032;-49
2021/01/03 01:10:14;;;;;;;10.30;5.63;;;8.80;82.10;;;;;;5096467;28;20048;-48
2021/01/03 01:12:40;;;;;;;6.15;4.03;;;8.90;81.60;;;;;;5095944;28;20110;-48
2021/01/03 01:15:10;;;;;;;9.88;5.90;;;8.90;82.30;;;;;;5095952;28;20032;-48
2021/01/03 01:17:36;;;;;;;9.18;5.32;;;8.90;81.40;;;;;;5061677;28;20048;-48
2021/01/03 01:20:03;;;;;;;13.30;5.45;;;8.90;81.90;;;;;;5095746;28;20147;-47
2021/01/03 01:22:29;;;;;;;8.23;5.05;;;8.80;82.70;;;;;;5043796;28;20032;-48
2021/01/03 01:24:55;;;;;;;8.15;4.32;;;8.70;82.70;;;;;;5094899;28;20073;-49
2021/01/03 01:27:20;;;;;;;7.70;4.82;;;8.70;82.80;;;;;;5095858;28;20039;-49
2021/01/03 01:29:46;;;;;;;9.35;5.22;;;8.70;83.00;;;;;;5096013;28;20035;-48
2021/01/03 01:32:12;;;;;;;9.70;5.50;;;8.80;82.40;;;;;;5095689;28;20104;-49
2021/01/03 01:34:38;;;;;;;10.77;5.32;;;8.80;81.90;;;;;;5095705;28;20028;-49
2021/01/03 01:37:03;;;;;;;10.90;6.13;;;8.80;82.30;;;;;;5095518;28;20031;-48
2021/01/03 01:39:29;;;;;;;10.10;6.07;;;8.80;81.90;;;;;;5095597;28;20055;-49
2021/01/03 01:41:55;;;;;;;8.82;5.45;;;8.90;81.40;;;;;;5095830;28;20024;-48
2021/01/03 01:44:20;;;;;;;10.13;6.35;;;8.90;81.50;;;;;;5095411;28;20024;-49
2021/01/03 01:47:33;;;;;;;9.95;6.55;;;8.90;81.40;;;;;;5095373;28;20024;-49
2021/01/03 01:50:03;;;;;;;7.05;4.68;;;8.90;81.40;;;;;;5033318;28;20057;-48
2021/01/03 01:52:36;;;;;;;9.10;5.18;;;8.70;82.40;;;;;;5033000;28;20033;-49
2021/01/03 01:55:07;;;;;;;8.10;4.15;;;8.50;82.60;;;;;;5032935;28;20120;-47
2021/01/03 01:57:40;;;;;;;6.93;4.00;;;8.50;82.90;;;;;;5016288;28;20048;-47
2021/01/03 02:00:31;;;;;;;8.90;5.18;;;8.50;83.20;;;;;;5032601;28;20029;-47
2021/01/03 02:03:23;;;;;;;9.45;4.72;;;8.50;82.90;;;;;;5012972;28;20045;-48
2021/01/03 02:06:02;;;;;;;6.60;4.18;;;8.50;82.60;;;;;;4973815;28;20534;-49
2021/01/03 02:08:31;;;;;;;7.75;3.67;;;8.50;82.40;;;;;;4973795;28;20035;-48
2021/01/03 02:10:59;;;;;;;8.25;4.32;;;8.50;82.60;;;;;;4974412;28;20043;-48
2021/01/03 02:13:44;;;;;;;9.02;6.43;;;8.60;82.80;;;;;;4971320;28;20042;-48
2021/01/03 02:16:14;;;;;;;7.65;5.25;;;8.70;82.20;;;;;;4941908;28;20062;-47
2021/01/03 02:18:42;;;;;;;10.60;5.38;;;8.80;82.00;;;;;;4973700;28;20050;-47
2021/01/03 02:21:36;;;;;;;11.25;5.80;;;8.80;81.60;;;;;;5012442;28;20050;-48
2021/01/03 02:24:14;;;;;;;10.02;5.65;;;8.80;81.80;;;;;;5029562;28;20084;-49
2021/01/03 02:27:29;;;;;;;7.43;4.90;;;8.90;81.40;;;;;;5032298;28;20089;-47
2021/01/03 02:29:57;;;;;;;7.88;5.05;;;9.00;81.20;;;;;;4992975;28;20039;-48
2021/01/03 02:32:24;;;;;;;11.43;5.50;;;8.90;81.20;;;;;;4992920;28;20045;-47
2021/01/03 02:34:52;;;;;;;8.70;4.88;;;9.00;81.00;;;;;;4993132;28;20038;-47
2021/01/03 02:37:39;;;;;;;6.75;4.53;;;9.10;80.40;;;;;;4992617;28;20046;-48
2021/01/03 02:40:09;;;;;;;8.98;5.05;;;9.20;80.40;;;;;;4992897;28;20038;-49
2021/01/03 02:42:37;;;;;;;10.77;6.80;;;9.10;80.60;;;;;;4992679;28;20034;-48
2021/01/03 02:45:11;;;;;;;15.20;7.55;;;9.10;81.00;;;;;;4992836;28;20032;-49
2021/01/03 02:47:37;;;;;;;14.32;7.00;;;9.10;80.90;;;;;;4984218;28;20045;-48
2021/01/03 02:50:07;;;;;;;10.85;6.30;;;9.00;81.20;;;;;;4954297;29;20050;-48
2021/01/03 02:52:38;;;;;;;13.80;7.57;;;9.00;81.10;;;;;;4969875;28;20039;-48
2021/01/03 02:55:05;;;;;;;13.65;7.97;;;9.10;81.10;;;;;;4953924;29;20101;-47
2021/01/03 02:57:31;;;;;;;13.40;6.63;;;9.00;81.50;;;;;;4969282;28;20165;-48
2021/01/03 02:59:57;;;;;;;13.60;7.97;;;9.20;80.90;;;;;;4953635;29;20185;-48
2021/01/03 03:02:22;;;;;;;14.15;7.22;;;9.20;80.80;;;;;;4953620;29;20031;-48
2021/01/03 03:04:48;;;;;;;15.27;8.23;;;9.20;80.60;;;;;;4953845;29;20031;-47
2021/01/03 03:07:15;;;;;;;13.52;7.63;;;9.10;80.90;;;;;;5020502;28;20048;-48
2021/01/03 03:09:40;;;;;;;12.10;6.70;;;9.20;80.90;;;;;;5051637;28;20040;-47
2021/01/03 03:12:06;;;;;;;11.80;6.43;;;9.20;80.60;;;;;;5051451;28;20029;-49
2021/01/03 03:14:32;;;;;;;10.80;6.75;;;9.20;80.90;;;;;;5051571;28;20116;-49
2021/01/03 03:17:00;;;;;;;8.45;5.13;;;9.30;80.90;;;;;;5051445;28;20107;-47
2021/01/03 03:19:26;;;;;;;11.95;6.53;;;9.40;80.40;;;;;;5086960;28;20060;-49
2021/01/03 03:21:52;;;;;;;8.27;4.90;;;9.40;80.20;;;;;;5093448;28;20087;-47
2021/01/03 03:24:19;;;;;;;7.90;4.30;;;9.40;80.20;;;;;;5093416;28;20482;-47
2021/01/03 03:26:57;;;;;;;7.55;4.32;;;9.50;79.90;;;;;;5093738;28;20024;-48
2021/01/03 03:29:24;;;;;;;8.43;4.68;;;9.50;79.70;;;;;;5093472;28;20028;-49
2021/01/03 03:31:51;;;;;;;10.30;5.13;;;9.60;79.20;;;;;;5093867;28;20046;-48
2021/01/03 03:34:17;;;;;;;7.13;4.97;;;9.50;79.70;;;;;;5093629;28;20027;-48
2021/01/03 03:36:43;;;;;;;10.98;6.68;;;9.40;80.50;;;;;;5093659;28;20062;-48
2021/01/03 03:39:09;;;;;;;8.98;6.00;;;9.40;80.70;;;;;;5075114;28;20463;-48
2021/01/03 03:41:36;;;;;;;7.80;5.30;;;9.20;81.30;;;;;;5093538;28;20388;-48
2021/01/03 03:44:02;;;;;;;8.73;4.78;;;9.10;81.60;;;;;;5093578;28;20043;-49
2021/01/03 03:46:28;;;;;;;7.25;4.47;;;9.10;82.00;;;;;;5058385;28;20058;-48
2021/01/03 03:48:53;;;;;;;9.65;4.97;;;9.10;82.30;;;;;;5097664;28;20471;-49
2021/01/03 03:51:21;;;;;;;8.23;4.65;;;9.00;82.50;;;;;;5078994;28;20032;-47
2021/01/03 03:53:47;;;;;;;7.85;4.55;;;9.00;83.10;;;;;;5097461;28;20028;-47
2021/01/03 03:56:14;;;;;;;7.07;4.47;;;8.90;83.50;;;;;;5097995;28;20495;-48
2021/01/03 03:58:40;;;;;;;6.57;3.63;;;9.10;87.10;;;;;;5097423;28;20125;-48
2021/01/03 04:01:06;;;;;;;7.40;4.38;;;8.90;83.70;;;;;;5097273;28;20028;-47
2021/01/03 04:03:32;;;;;;;8.32;3.88;;;9.00;83.50;;;;;;5097427;28;20020;-47
2021/01/03 04:05:59;;;;;;;6.32;3.92;;;9.00;83.90;;;;;;5095581;28;20386;-48
2021/01/03 04:08:25;;;;;;;7.35;4.55;;;8.90;84.10;;;;;;5097445;28;20024;-48
2021/01/03 04:10:51;;;;;;;6.38;4.40;;;8.90;84.10;;;;;;5097396;28;20422;-49
2021/01/03 04:13:17;;;;;;;9.82;4.80;;;8.90;83.90;;;;;;5097133;28;20032;-47
2021/01/03 04:15:43;;;;;;;8.43;5.20;;;9.00;83.90;;;;;;5097031;28;20391;-48
2021/01/03 04:18:09;;;;;;;9.18;4.97;;;9.00;83.70;;;;;;5097046;28;20503;-48
2021/01/03 04:20:35;;;;;;;8.05;5.18;;;9.00;83.90;;;;;;5097116;28;20480;-49
2021/01/03 04:23:04;;;;;;;9.18;6.85;;;9.10;83.80;;;;;;5097016;28;20031;-49
2021/01/03 04:25:29;;;;;;;9.18;5.75;;;9.20;83.30;;;;;;5097016;28;20476;-49
2021/01/03 04:27:55;;;;;;;9.68;5.78;;;9.30;82.70;;;;;;5097339;28;20069;-48
2021/01/03 04:30:23;;;;;;;9.82;5.75;;;9.30;82.10;;;;;;5097307;28;20024;-49
2021/01/03 04:32:50;;;;;;;10.00;6.22;;;9.40;82.00;;;;;;5096749;28;20036;-48
2021/01/03 04:35:16;;;;;;;8.13;5.97;;;9.40;82.20;;;;;;5096797;28;20036;-47
2021/01/03 04:37:42;;;;;;;10.68;6.38;;;9.40;82.10;;;;;;5097171;28;20125;-48
2021/01/03 04:40:16;;;;;;;11.48;6.70;;;9.30;82.20;;;;;;5096987;28;20471;-48
2021/01/03 04:42:43;;;;;;;10.40;6.63;;;9.30;82.40;;;;;;5096522;28;20028;-49
2021/01/03 04:45:22;;;;;;;11.68;7.10;;;9.30;82.40;;;;;;5096691;28;20082;-47
2021/01/03 04:48:00;;;;;;;9.98;6.47;;;9.20;82.80;;;;;;5096591;28;20032;-48
2021/01/03 04:50:55;;;;;;;11.07;6.38;;;9.20;82.80;;;;;;5096701;28;20028;-48
2021/01/03 04:53:36;;;;;;;12.57;6.72;;;9.20;83.20;;;;;;5096384;28;20025;-48
2021/01/03 04:56:35;;;;;;;12.48;7.43;;;9.00;83.80;;;;;;5094734;28;20063;-48
2021/01/03 04:59:12;;;;;;;11.13;6.57;;;9.00;84.40;;;;;;5032607;28;20041;-48
2021/01/03 05:01:46;;;;;;;9.80;6.43;;;9.00;84.20;;;;;;5034022;28;20037;-48
2021/01/03 05:04:42;;;;;;;10.23;6.93;;;8.90;84.60;;;;;;5034076;28;20044;-48
2021/01/03 05:07:40;;;;;;;9.77;6.63;;;9.00;84.60;;;;;;5034463;28;20033;-48
2021/01/03 05:10:18;;;;;;;12.90;6.45;;;9.00;84.90;;;;;;4994838;28;20459;-48
2021/01/03 05:13:02;;;;;;;11.60;6.13;;;8.90;85.40;;;;;;4994211;28;20030;-47
2021/01/03 05:15:31;;;;;;;9.90;5.57;;;8.80;85.40;;;;;;4994653;28;20493;-46
2021/01/03 05:17:57;;;;;;;9.50;6.18;;;8.80;85.40;;;;;;4994533;28;20132;-47
2021/01/03 05:20:24;;;;;;;10.90;5.28;;;8.70;86.00;;;;;;4994100;28;20372;-48
2021/01/03 05:22:50;;;;;;;10.77;6.13;;;8.50;86.40;;;;;;4994105;28;20088;-48
2021/01/03 05:25:18;;;;;;;9.80;6.10;;;8.60;87.10;;;;;;4994465;28;20081;-47
2021/01/03 05:28:05;;;;;;;5.88;3.72;;;8.60;87.00;;;;;;4994189;28;20138;-47
2021/01/03 05:30:31;;;;;;;9.57;5.22;;;8.50;87.60;;;;;;4955556;29;20043;-48
2021/01/03 05:33:07;;;;;;;8.20;5.38;;;8.50;87.90;;;;;;4955099;29;20043;-48
2021/01/03 05:35:37;;;;;;;8.57;5.47;;;8.50;87.60;;;;;;4950661;28;20043;-47
2021/01/03 05:38:04;;;;;;;11.02;6.57;;;8.50;87.60;;;;;;4974455;28;20039;-48
2021/01/03 05:40:37;;;;;;;11.57;7.28;;;8.60;87.50;;;;;;4974420;28;20120;-48
2021/01/03 05:43:13;;;;;;;9.95;6.63;;;8.70;87.30;;;;;;4974304;28;20479;-47
2021/01/03 05:46:05;;;;;;;10.32;6.30;;;8.70;86.70;;;;;;4974432;28;20514;-48
2021/01/03 05:48:39;;;;;;;10.32;6.70;;;8.70;86.80;;;;;;4993589;28;20030;-48
2021/01/03 05:51:27;;;;;;;11.60;6.78;;;8.80;86.80;;;;;;4993798;28;20045;-48
2021/01/03 05:54:01;;;;;;;11.25;6.45;;;8.80;86.30;;;;;;4993749;28;20106;-48
2021/01/03 05:56:27;;;;;;;12.05;6.90;;;8.80;86.30;;;;;;4993652;28;20042;-49
2021/01/03 05:58:54;;;;;;;9.63;6.03;;;8.80;86.60;;;;;;4993528;28;20034;-49
2021/01/03 06:01:23;;;;;;;10.15;6.47;;;8.60;87.20;;;;;;4993962;28;20495;-48
2021/01/03 06:04:06;;;;;;;11.38;7.03;;;8.70;87.10;;;;;;4977160;28;20119;-49
2021/01/03 06:06:50;;;;;;;12.43;7.97;;;8.90;86.30;;;;;;5009428;28;20033;-47
2021/01/03 06:09:18;;;;;;;12.80;7.32;;;8.90;86.20;;;;;;5095709;28;20028;-47
2021/01/03 06:12:04;;;;;;;10.98;7.53;;;8.80;86.60;;;;;;5094914;28;20036;-48
2021/01/03 06:14:31;;;;;;;12.30;7.10;;;8.80;86.60;;;;;;5095119;28;20024;-48
2021/01/03 06:17:05;;;;;;;12.70;6.45;;;8.90;86.10;;;;;;5094818;28;20084;-47
2021/01/03 06:19:45;;;;;;;11.80;6.80;;;9.00;85.90;;;;;;5095072;28;20035;-51
2021/01/03 06:22:35;;;;;;;12.18;7.88;;;8.90;86.20;;;;;;5094665;28;20075;-45
2021/01/03 06:25:09;;;;;;;13.40;8.20;;;8.80;87.00;;;;;;5076654;28;20410;-47
2021/01/03 06:27:34;;;;;;;13.73;8.18;;;8.70;87.50;;;;;;5094493;28;20035;-45
2021/01/03 06:30:09;;;;;;;11.30;7.75;;;8.70;87.30;;;;;;5094631;28;20020;-48
2021/01/03 06:33:17;;;;;;;12.45;8.02;;;8.60;87.90;;;;;;5075923;28;20044;-47
2021/01/03 06:35:56;;;;;;;20.88;11.95;;;8.70;87.80;;;;;;5094463;28;20020;-47
2021/01/03 06:38:37;;;;;;;12.52;8.70;;;8.60;88.50;;;;;;5094199;28;20050;-46
2021/01/03 06:41:09;;;;;;;10.43;5.70;;;8.50;88.70;;;;;;5093513;28;20046;-47
2021/01/03 06:43:44;;;;;;;10.75;6.03;;;8.50;88.70;;;;;;5091867;28;20476;-44
2021/01/03 06:46:32;;;;;;;13.00;6.88;;;8.50;89.10;;;;;;5076114;28;20376;-44
2021/01/03 06:48:58;;;;;;;12.15;7.70;;;8.40;89.30;;;;;;5094415;28;20070;-45
2021/01/03 06:52:02;;;;;;;13.18;8.45;;;8.70;89.20;;;;;;5094264;28;20487;-45
2021/01/03 06:54:56;;;;;;;10.68;7.65;;;8.60;89.60;;;;;;4992592;28;20030;-45
2021/01/03 06:57:42;;;;;;;10.05;6.85;;;8.70;89.20;;;;;;4992432;28;20050;-46
2021/01/03 07:00:08;;;;;;;6.57;4.10;;;8.50;90.00;;;;;;4992377;28;20030;-45
2021/01/03 07:02:40;;;;;;;11.40;5.95;;;8.60;89.10;;;;;;4991731;28;20052;-48
2021/01/03 07:05:08;;;;;;;11.57;7.30;;;8.60;90.00;;;;;;4990937;28;20030;-46
2021/01/03 07:07:37;;;;;;;13.27;7.00;;;8.60;89.80;;;;;;4982851;28;20030;-48
2021/01/03 07:10:17;;;;;;;12.38;6.75;;;8.60;90.10;;;;;;4969976;28;20609;-48
2021/01/03 07:12:49;;;;;;;11.60;7.30;;;8.60;90.20;;;;;;4970860;28;20082;-45
2021/01/03 07:15:34;;;;;;;10.90;6.18;;;8.60;90.40;;;;;;4970911;28;20133;-47
2021/01/03 07:18:38;;;;;;;7.32;3.88;;;8.50;90.70;;;;;;4967914;28;20515;-48
2021/01/03 07:21:03;;;;;;;12.95;7.88;;;8.40;90.80;;;;;;4925229;29;20043;-50
2021/01/03 07:23:42;;;;;;;14.85;7.22;;;8.50;91.20;;;;;;4932521;29;20036;-49
2021/01/03 07:26:25;;;;;;;8.98;5.80;;;8.50;90.50;;;;;;4932903;29;20035;-49
2021/01/03 07:29:01;;;;;;;13.93;6.85;;;8.60;90.70;;;;;;4932656;29;20039;-49
2021/01/03 07:31:41;;;;;;;9.43;4.50;;;8.70;90.60;;;;;;5010662;28;20038;-53
2021/01/03 07:34:22;;;;;;;9.32;6.32;;;8.60;90.50;;;;;;4996938;28;20034;-49
2021/01/03 07:36:52;;;;;;;9.52;6.38;;;8.70;91.00;;;;;;5027739;28;20501;-49
2021/01/03 07:39:20;;;;;;;10.60;6.30;;;8.70;91.30;;;;;;4996863;28;20493;-50
2021/01/03 07:41:47;;;;;;;11.80;6.70;;;8.60;91.30;;;;;;5045719;28;20040;-50
2021/01/03 07:44:22;;;;;;;10.18;6.90;;;8.70;91.50;;;;;;5050277;28;20475;-49
2021/01/03 07:46:49;;;;;;;10.43;5.25;;;8.60;91.60;;;;;;5066093;28;20050;-49
2021/01/03 07:49:40;;;;;;;10.00;7.28;;;8.50;91.70;;;;;;5069681;28;20114;-49
2021/01/03 07:52:18;;;;;;;6.43;3.75;;;8.40;92.30;;;;;;5058382;28;20025;-50
2021/01/03 07:54:51;;;;;;;10.60;5.00;;;8.40;92.20;;;;;;5049688;28;20033;-50
2021/01/03 07:57:17;;;;;;;9.93;6.32;;;8.40;92.30;;;;;;5081446;28;20071;-50
2021/01/03 07:59:46;;;;;;;7.45;4.43;;;8.60;92.00;;;;;;5112580;28;20020;-49
2021/01/03 08:02:13;;;;;;;12.38;6.43;;;8.60;91.80;;;;;;5112057;28;20028;-49
2021/01/03 08:04:39;;;;;;;11.32;6.93;;;8.60;92.20;;;;;;5112609;28;20474;-51
2021/01/03 08:07:11;;;;;;;12.68;7.00;;;8.70;92.00;;;;;;5112528;28;20059;-50
2021/01/03 08:09:38;;;;;;;;;;;8.70;91.90;;;;;;5112803;28;20054;-49
2021/01/03 08:12:12;;;;;;;9.82;6.07;;;8.50;92.10;;;;;;5096861;28;19996;-49
2021/01/03 08:14:41;;;;;;;9.95;5.80;;;8.60;92.30;;;;;;5092122;28;20039;-49
2021/01/03 08:17:11;;;;;;;9.20;4.93;;;8.60;92.10;;;;;;5092055;28;20044;-50
2021/01/03 08:19:37;;;;;;;7.88;3.58;;;8.70;92.40;;;;;;5092516;28;20024;-49
2021/01/03 08:22:03;;;;;;;7.53;4.00;;;8.70;92.20;;;;;;5112149;28;20043;-48
2021/01/03 08:24:30;;;;;;;7.38;4.05;;;8.80;92.10;;;;;;5112487;28;20019;-48
2021/01/03 08:27:03;;;;;;;6.75;4.20;;;8.80;92.60;;;;;;5112369;28;20481;-49
2021/01/03 08:29:31;;;;;;;;;;;8.80;92.70;;;;;;5112726;28;20114;-49
2021/01/03 08:32:00;;;;;;;10.23;4.32;;;8.90;92.40;;;;;;5112235;28;19903;-48
2021/01/03 08:34:33;;;;;;;7.50;4.60;;;9.00;92.30;;;;;;5115384;28;20031;-49
2021/01/03 08:37:00;;;;;;;7.85;3.92;;;9.20;91.90;;;;;;5116002;28;20027;-49
2021/01/03 08:39:29;;;;;;;7.40;4.90;;;9.30;91.60;;;;;;5115921;28;20467;-49
2021/01/03 08:42:05;;;;;;;9.00;5.05;;;9.50;91.30;;;;;;5113124;28;20067;-49
2021/01/03 08:44:38;;;;;;;4.65;3.58;;;9.60;90.80;;;;;;5115920;28;20020;-49
2021/01/03 08:47:12;;;;;;;10.27;5.88;;;9.60;90.30;;;;;;5115788;28;20020;-49
2021/01/03 08:49:39;;;;;;;12.40;5.90;;;9.60;90.70;;;;;;5115887;28;20440;-49
2021/01/03 08:52:20;;;;;;;8.55;4.63;;;9.70;90.40;;;;;;5115745;28;20027;-50
2021/01/03 08:54:48;;;;;;;10.27;6.32;;;9.70;90.40;;;;;;5096604;28;20036;-49
2021/01/03 08:57:15;;;;;;;7.95;4.50;;;9.70;90.50;;;;;;5115483;28;20039;-49
2021/01/03 08:59:41;;;;;;;13.88;8.43;;;9.40;91.00;;;;;;5062821;28;20403;-49
2021/01/03 09:02:27;;;;;;;12.18;7.45;;;9.40;91.40;;;;;;5115387;28;20032;-49
2021/01/03 09:04:59;;;;;;;9.70;7.20;;;9.40;91.30;;;;;;5115604;28;20031;-49
2021/01/03 09:07:30;;;;;;;11.88;6.45;;;9.40;91.00;;;;;;5116450;28;20132;-49
2021/01/03 09:09:59;;;;;;;12.40;8.23;;;9.50;90.80;;;;;;5101585;28;20032;-49
2021/01/03 09:12:44;;;;;;;16.05;10.02;;;9.40;91.10;;;;;;5096210;28;20074;-49
2021/01/03 09:15:21;;;;;;;13.57;8.82;;;9.40;91.20;;;;;;5033729;28;20440;-50
2021/01/03 09:18:13;;;;;;;13.43;8.57;;;9.50;91.20;;;;;;5034220;28;20041;-50
2021/01/03 09:20:45;;;;;;;9.63;6.00;;;9.40;91.50;;;;;;5042590;28;20048;-49
2021/01/03 09:23:19;;;;;;;13.60;8.18;;;9.30;91.90;;;;;;5053669;28;20041;-49
2021/01/03 09:25:52;;;;;;;19.58;7.82;;;9.30;92.00;;;;;;5053541;28;20029;-50
2021/01/03 09:28:47;;;;;;;20.13;9.70;;;9.30;91.90;;;;;;5051268;28;20044;-49
2021/01/03 09:31:23;;;;;;;25.38;13.00;;;9.20;92.10;;;;;;5002413;28;20055;-49
2021/01/03 09:34:07;;;;;;;9.98;5.22;;;9.20;92.30;;;;;;5053569;28;20067;-49
2021/01/03 09:36:59;;;;;;;17.42;9.88;;;9.20;92.40;;;;;;5053520;28;20056;-51
2021/01/03 09:39:52;;;;;;;19.58;11.05;;;9.30;92.20;;;;;;5050754;28;20033;-50
2021/01/03 09:42:32;;;;;;;15.07;10.40;;;9.40;92.20;;;;;;5053131;28;20405;-49
2021/01/03 09:45:26;;;;;;;17.50;10.75;;;9.40;92.00;;;;;;5022342;28;20493;-49
2021/01/03 09:47:52;;;;;;;16.27;9.73;;;9.40;92.10;;;;;;5095628;28;20481;-49
2021/01/03 09:50:27;;;;;;;15.82;10.18;;;9.40;92.00;;;;;;5095589;28;20169;-51
2021/01/03 09:53:08;;;;;;;16.25;9.38;;;9.60;92.10;;;;;;5095570;28;20024;-49
2021/01/03 09:55:40;;;;;;;15.68;8.82;;;9.70;91.80;;;;;;5095211;28;20039;-49
2021/01/03 09:58:08;;;;;;;16.45;9.95;;;9.70;91.80;;;;;;5095393;28;20423;-50
2021/01/03 10:00:49;;;;;;;16.00;11.35;;;9.80;91.70;;;;;;5095157;28;20085;-50
2021/01/03 10:03:36;;;;;;;15.48;10.07;;;9.90;91.80;;;;;;5095116;28;20024;-49
2021/01/03 10:06:20;;;;;;;15.27;10.82;;;9.90;91.60;;;;;;5095435;28;20498;-49
2021/01/03 10:08:47;;;;;;;18.10;10.60;;;10.00;91.50;;;;;;5095291;28;20369;-49
2021/01/03 10:11:31;;;;;;;14.90;9.50;;;10.10;91.30;;;;;;5095604;28;20080;-49
2021/01/03 10:14:00;;;;;;;18.40;10.43;;;10.20;91.20;;;;;;5094948;28;20494;-49
2021/01/03 10:16:28;;;;;;;15.45;8.57;;;10.30;91.10;;;;;;5095186;28;20028;-49
2021/01/03 10:18:55;;;;;;;15.98;10.15;;;10.20;90.90;;;;;;5093290;28;20044;-49
2021/01/03 10:21:36;;;;;;;15.48;9.05;;;10.30;90.90;;;;;;5094846;28;20380;-49
2021/01/03 10:24:20;;;;;;;12.05;6.15;;;10.10;91.00;;;;;;5094956;28;20024;-49
2021/01/03 10:26:48;;;;;;;16.65;10.85;;;10.20;90.90;;;;;;5094867;28;20032;-49
2021/01/03 10:29:15;;;;;;;17.63;10.57;;;10.20;91.20;;;;;;5094730;28;20024;-50
2021/01/03 10:31:42;;;;;;;18.45;11.25;;;10.40;91.00;;;;;;5094858;28;20069;-49
2021/01/03 10:34:09;;;;;;;17.50;9.75;;;10.40;91.10;;;;;;5094833;28;20476;-48
2021/01/03 10:36:35;;;;;;;17.10;10.15;;;10.40;90.90;;;;;;5094685;28;20047;-49
2021/01/03 10:39:01;;;;;;;17.67;12.73;;;10.40;90.80;;;;;;5092699;28;20391;-49
2021/01/03 10:41:32;;;;;;;22.88;12.73;;;10.50;90.80;;;;;;5095157;28;20031;-49
2021/01/03 10:43:58;;;;;;;36.33;23.20;;;10.40;90.60;;;;;;5094339;28;20562;-50
2021/01/03 10:46:24;;;;;;;40.85;26.35;;;10.50;90.50;;;;;;5094805;28;20028;-50
2021/01/03 10:48:49;;;;;;;32.50;23.30;;;10.60;90.20;;;;;;5094764;28;20024;-49
2021/01/03 10:51:16;;;;;;;26.13;19.67;;;10.70;90.00;;;;;;5092877;28;20036;-49
2021/01/03 10:53:43;;;;;;;15.95;11.85;;;10.70;89.40;;;;;;5094196;28;20116;-49
2021/01/03 10:56:09;;;;;;;10.88;7.55;;;10.80;88.30;;;;;;5094777;28;20033;-49
2021/01/03 10:58:38;;;;;;;10.57;7.45;;;10.90;88.10;;;;;;5094271;28;20036;-49
2021/01/03 11:01:04;;;;;;;10.48;7.95;;;10.90;87.40;;;;;;5094708;28;20019;-49
2021/01/03 11:03:30;;;;;;;11.43;6.90;;;11.00;87.20;;;;;;5075598;28;20068;-50
2021/01/03 11:05:55;;;;;;;12.35;7.85;;;11.00;87.30;;;;;;5074366;28;20043;-50
2021/01/03 11:08:21;;;;;;;9.70;6.45;;;11.00;86.90;;;;;;5094266;28;20031;-49
2021/01/03 11:10:47;;;;;;;15.60;8.82;;;11.00;87.20;;;;;;5094106;28;20078;-49
2021/01/03 11:13:13;;;;;;;11.38;7.00;;;11.10;86.90;;;;;;5094050;28;20067;-50
2021/01/03 11:15:39;;;;;;;12.15;7.20;;;11.20;85.70;;;;;;5093912;28;20031;-49
2021/01/03 11:18:04;;;;;;;11.50;6.85;;;11.30;85.90;;;;;;5093743;28;20107;-50
2021/01/03 11:20:30;;;;;;;10.27;7.05;;;11.30;85.10;;;;;;5093955;28;20059;-49
2021/01/03 11:22:56;;;;;;;11.70;8.57;;;11.40;85.50;;;;;;5094041;28;20085;-50
2021/01/03 11:25:22;;;;;;;12.98;9.38;;;11.50;85.20;;;;;;5095055;28;20028;-49
2021/01/03 11:27:47;;;;;;;12.80;8.18;;;11.50;85.20;;;;;;5093718;28;20075;-50
2021/01/03 11:30:14;;;;;;;14.85;9.23;;;11.40;85.90;;;;;;5093958;28;20024;-49
2021/01/03 11:32:42;;;;;;;16.45;9.80;;;11.40;86.00;;;;;;5075532;28;20032;-51
2021/01/03 11:35:09;;;;;;;14.30;8.57;;;11.60;85.80;;;;;;5094276;28;20035;-50
2021/01/03 11:37:35;;;;;;;13.23;9.55;;;11.40;85.80;;;;;;5092252;28;20373;-49
2021/01/03 11:40:01;;;;;;;13.48;9.10;;;11.50;86.10;;;;;;5074987;28;20082;-49
2021/01/03 11:42:31;;;;;;;15.13;9.10;;;11.40;86.00;;;;;;5094041;28;20020;-49
2021/01/03 11:44:58;;;;;;;12.35;7.57;;;11.40;86.90;;;;;;5093887;28;20081;-50
2021/01/03 11:47:25;;;;;;;16.05;9.05;;;11.30;86.20;;;;;;5058372;28;20063;-49
2021/01/03 11:49:50;;;;;;;10.13;7.60;;;11.50;86.00;;;;;;5093733;28;20031;-49
2021/01/03 11:52:16;;;;;;;10.10;7.80;;;11.60;84.60;;;;;;5094001;28;20460;-48
2021/01/03 11:54:42;;;;;;;10.13;7.07;;;11.70;84.20;;;;;;5071554;28;20068;-50
2021/01/03 11:57:08;;;;;;;12.18;6.10;;;11.60;84.50;;;;;;5070371;28;20431;-50
2021/01/03 11:59:34;;;;;;;11.57;7.32;;;11.50;84.90;;;;;;5069782;28;20048;-50
2021/01/03 12:02:08;;;;;;;10.77;7.55;;;11.50;85.00;;;;;;5069766;28;20028;-51
2021/01/03 12:04:36;;;;;;;14.48;6.78;;;11.60;84.20;;;;;;5066864;28;20037;-50
2021/01/03 12:07:05;;;;;;;10.05;7.07;;;11.70;83.90;;;;;;5069762;28;20058;-49
2021/01/03 12:09:31;;;;;;;11.55;7.30;;;11.90;83.80;;;;;;5073207;28;20033;-49
2021/01/03 12:12:02;;;;;;;12.90;7.20;;;12.00;83.50;;;;;;5073495;28;20113;-51
2021/01/03 12:14:29;;;;;;;11.07;6.90;;;12.10;83.10;;;;;;5073572;28;20056;-51
2021/01/03 12:17:00;;;;;;;10.13;7.07;;;12.10;83.20;;;;;;5073515;28;20052;-51
2021/01/03 12:19:27;;;;;;;11.98;7.57;;;12.10;82.90;;;;;;5073466;28;20393;-50
2021/01/03 12:21:57;;;;;;;12.68;9.05;;;12.20;82.90;;;;;;5073245;28;20052;-51
2021/01/03 12:24:23;;;;;;;14.25;11.35;;;12.20;82.60;;;;;;5056202;28;20037;-49
2021/01/03 12:26:49;;;;;;;15.68;11.05;;;12.10;82.50;;;;;;5114883;28;20038;-50
2021/01/03 12:29:16;;;;;;;12.95;9.23;;;12.00;83.30;;;;;;5116223;28;20445;-50
2021/01/03 12:31:49;;;;;;;12.00;9.30;;;12.00;83.20;;;;;;5116504;28;20027;-49
2021/01/03 12:34:17;;;;;;;10.68;7.43;;;12.00;82.90;;;;;;5116121;28;20026;-51
2021/01/03 12:36:43;;;;;;;11.35;8.02;;;12.00;83.40;;;;;;5115884;28;20577;-50
2021/01/03 12:39:10;;;;;;;11.82;7.68;;;12.00;83.50;;;;;;5116110;28;20110;-51
2021/01/03 12:41:37;;;;;;;11.68;6.55;;;11.90;83.80;;;;;;5097434;28;20492;-50
2021/01/03 12:44:03;;;;;;;11.15;7.82;;;11.90;83.50;;;;;;5116011;28;20034;-50
2021/01/03 12:46:33;;;;;;;8.32;4.97;;;12.00;83.10;;;;;;5072745;28;20409;-50
2021/01/03 12:48:59;;;;;;;9.57;6.82;;;12.10;80.10;;;;;;5072705;28;20090;-50
2021/01/03 12:51:25;;;;;;;7.90;4.90;;;12.20;80.70;;;;;;5072887;28;20033;-51
2021/01/03 12:53:53;;;;;;;6.35;4.80;;;12.30;79.10;;;;;;5072861;28;20491;-51
2021/01/03 12:56:22;;;;;;;7.95;4.40;;;12.30;78.90;;;;;;5072765;28;20040;-50
2021/01/03 12:58:54;;;;;;;5.70;3.97;;;12.30;77.80;;;;;;5072691;28;20036;-50
2021/01/03 13:01:31;;;;;;;5.70;3.30;;;12.30;75.70;;;;;;5072736;28;20154;-50
2021/01/03 13:03:58;;;;;;;10.30;8.98;;;12.40;76.70;;;;;;5056879;28;20028;-50
2021/01/03 13:06:24;;;;;;;8.65;5.78;;;12.60;71.80;;;;;;5038951;28;20068;-50
2021/01/03 13:08:50;;;;;;;8.13;6.45;;;12.70;70.60;;;;;;5072601;28;20013;-49
2021/01/03 13:11:17;;;;;;;6.68;5.15;;;12.70;71.70;;;;;;5072498;28;20080;-50